Time;durP1;ratioP1;P1;durP2;ratioP2;P2;SDS_P1;SDS_P2;PMS_P1;PMS_P2;Temp;Humidity;BMP_temperature;BMP_pressure;BME280_temperature;BME280_humidity;BME280_pressure;Samples;Min_cycle;Max_cycle;Signal;HPM_P1;HPM_P2
2022/07/23 00:00:43;;;;;;;21.10;8.98;;;;;;;;;;5032268;28;20060;-69
2022/07/23 00:03:08;;;;;;;24.98;9.88;;;;;;;;;;5032848;28;20101;-69
2022/07/23 00:05:34;;;;;;;21.33;9.90;;;;;;;;;;5031641;28;20017;-70
2022/07/23 00:07:59;;;;;;;26.63;9.68;;;;;;;;;;5033133;28;20125;-69
2022/07/23 00:10:24;;;;;;;21.67;9.38;;;;;;;;;;5032484;28;20371;-69
2022/07/23 00:12:49;;;;;;;22.67;8.73;;;;;;;;;;5032945;28;20017;-68
2022/07/23 00:15:15;;;;;;;21.80;9.00;;;;;;;;;;5032084;28;20087;-69
2022/07/23 00:17:40;;;;;;;22.77;8.60;;;;;;;;;;5029649;28;20048;-68
2022/07/23 00:20:06;;;;;;;21.05;8.90;;;;;;;;;;5029536;28;20021;-69
2022/07/23 00:22:31;;;;;;;26.10;9.60;;;;;;;;;;5032651;28;20387;-69
2022/07/23 00:24:57;;;;;;;24.05;10.00;;;;;;;;;;5024556;28;20104;-69
2022/07/23 00:27:22;;;;;;;24.85;9.57;;;;;;;;;;5032139;28;20100;-69
2022/07/23 00:29:47;;;;;;;24.40;8.75;;;;;;;;;;5032181;28;20385;-69
2022/07/23 00:32:12;;;;;;;23.02;9.10;;;;;;;;;;5031907;28;20433;-69
2022/07/23 00:34:38;;;;;;;26.42;9.50;;;;;;;;;;5028426;28;20022;-69
2022/07/23 00:37:03;;;;;;;23.60;9.95;;;;;;;;;;5028550;28;20045;-69
2022/07/23 00:39:29;;;;;;;27.83;10.60;;;;;;;;;;5025884;28;20042;-69
2022/07/23 00:41:54;;;;;;;26.00;10.48;;;;;;;;;;5029210;28;20456;-69
2022/07/23 00:44:23;;;;;;;24.83;9.73;;;;;;;;;;5031446;28;20044;-69
2022/07/23 00:46:53;;;;;;;26.77;11.02;;;;;;;;;;5032453;28;20093;-69
2022/07/23 00:49:26;;;;;;;30.20;10.73;;;;;;;;;;5029576;28;20034;-69
2022/07/23 00:51:52;;;;;;;32.53;11.13;;;;;;;;;;5031521;28;20472;-70
2022/07/23 00:54:18;;;;;;;19.80;9.57;;;;;;;;;;5032292;28;20079;-69
2022/07/23 00:56:43;;;;;;;28.00;9.80;;;;;;;;;;5032485;28;20488;-68
2022/07/23 00:59:09;;;;;;;25.67;9.10;;;;;;;;;;5031388;28;20088;-69
2022/07/23 01:01:34;;;;;;;23.55;9.75;;;;;;;;;;5032288;28;20056;-69
2022/07/23 01:03:59;;;;;;;24.52;9.25;;;;;;;;;;5029276;28;20072;-70
2022/07/23 01:06:25;;;;;;;21.73;8.40;;;;;;;;;;5032584;28;20030;-70
2022/07/23 01:08:50;;;;;;;20.00;9.23;;;;;;;;;;5031347;28;20022;-69
2022/07/23 01:11:15;;;;;;;22.48;9.27;;;;;;;;;;5034021;28;20513;-69
2022/07/23 01:13:42;;;;;;;26.50;9.73;;;;;;;;;;5035048;28;20029;-69
2022/07/23 01:16:07;;;;;;;25.63;10.43;;;;;;;;;;5035488;28;20052;-68
2022/07/23 01:18:33;;;;;;;25.17;9.77;;;;;;;;;;5035548;28;20123;-70
2022/07/23 01:20:58;;;;;;;20.77;9.48;;;;;;;;;;5035014;28;20029;-69
2022/07/23 01:23:23;;;;;;;21.67;9.52;;;;;;;;;;5035998;28;20091;-68
2022/07/23 01:25:51;;;;;;;25.20;10.10;;;;;;;;;;5026648;28;20463;-68
2022/07/23 01:28:17;;;;;;;20.20;8.73;;;;;;;;;;5035741;28;20087;-68
2022/07/23 01:30:42;;;;;;;22.88;9.07;;;;;;;;;;5026645;28;20018;-69
2022/07/23 01:33:07;;;;;;;20.20;9.23;;;;;;;;;;5031220;28;20025;-69
2022/07/23 01:35:33;;;;;;;26.65;9.85;;;;;;;;;;5035367;28;20095;-70
2022/07/23 01:37:58;;;;;;;22.15;9.48;;;;;;;;;;5034962;28;20040;-70
2022/07/23 01:40:23;;;;;;;21.63;9.35;;;;;;;;;;5035265;28;20087;-69
2022/07/23 01:42:48;;;;;;;23.90;9.27;;;;;;;;;;5032862;28;20496;-68
2022/07/23 01:45:14;;;;;;;22.20;8.50;;;;;;;;;;5034780;28;20096;-69
2022/07/23 01:47:39;;;;;;;19.85;7.97;;;;;;;;;;5033468;28;20026;-69
2022/07/23 01:50:05;;;;;;;22.83;9.45;;;;;;;;;;5034809;28;20029;-69
2022/07/23 01:52:30;;;;;;;18.13;9.40;;;;;;;;;;5034894;28;20357;-69
2022/07/23 01:54:55;;;;;;;19.73;8.57;;;;;;;;;;5034737;28;20028;-70
2022/07/23 01:57:21;;;;;;;27.48;8.48;;;;;;;;;;5034538;28;20480;-69
2022/07/23 01:59:46;;;;;;;23.08;8.80;;;;;;;;;;5035199;28;20044;-68
2022/07/23 02:02:11;;;;;;;21.42;8.25;;;;;;;;;;5034781;28;20017;-68
2022/07/23 02:04:37;;;;;;;18.25;8.00;;;;;;;;;;5034384;28;20061;-69
2022/07/23 02:07:02;;;;;;;20.67;8.88;;;;;;;;;;5034985;28;20020;-68
2022/07/23 02:09:28;;;;;;;21.40;8.23;;;;;;;;;;5028437;28;20033;-68
2022/07/23 02:11:53;;;;;;;28.27;8.52;;;;;;;;;;5032633;28;20033;-68
2022/07/23 02:14:18;;;;;;;23.00;9.05;;;;;;;;;;5033589;28;20022;-69
2022/07/23 02:16:44;;;;;;;19.35;8.88;;;;;;;;;;5034352;28;20112;-69
2022/07/23 02:19:09;;;;;;;23.50;8.75;;;;;;;;;;5032528;28;20033;-69
2022/07/23 02:21:34;;;;;;;21.13;8.68;;;;;;;;;;5032951;28;20025;-68
2022/07/23 02:23:59;;;;;;;21.10;8.90;;;;;;;;;;5034383;28;20513;-68
2022/07/23 02:26:25;;;;;;;23.35;9.07;;;;;;;;;;5033754;28;20029;-68
2022/07/23 02:28:50;;;;;;;24.00;8.45;;;;;;;;;;5032932;28;20412;-68
2022/07/23 02:31:15;;;;;;;37.40;9.20;;;;;;;;;;5032138;28;20436;-68
2022/07/23 02:33:40;;;;;;;22.95;8.43;;;;;;;;;;5033841;28;20068;-68
2022/07/23 02:36:06;;;;;;;21.00;8.95;;;;;;;;;;5034644;28;20030;-69
2022/07/23 02:38:31;;;;;;;22.52;8.75;;;;;;;;;;5034039;28;20037;-69
2022/07/23 02:40:57;;;;;;;19.70;8.68;;;;;;;;;;5023278;28;20373;-69
2022/07/23 02:43:22;;;;;;;20.10;8.90;;;;;;;;;;5032866;28;20026;-69
2022/07/23 02:45:47;;;;;;;18.55;8.38;;;;;;;;;;5034014;28;20026;-69
2022/07/23 02:48:13;;;;;;;19.98;8.25;;;;;;;;;;5032678;28;20507;-69
2022/07/23 02:50:39;;;;;;;20.63;8.00;;;;;;;;;;5033628;28;20026;-69
2022/07/23 02:53:04;;;;;;;25.05;8.80;;;;;;;;;;5032533;28;20029;-68
2022/07/23 02:55:31;;;;;;;27.52;9.45;;;;;;;;;;5032127;28;20033;-68
2022/07/23 02:57:56;;;;;;;19.17;8.38;;;;;;;;;;5033885;28;20033;-68
2022/07/23 03:00:21;;;;;;;18.83;8.52;;;;;;;;;;5033148;28;20031;-68
2022/07/23 03:02:46;;;;;;;28.45;9.35;;;;;;;;;;5033994;28;20033;-68
2022/07/23 03:05:12;;;;;;;17.90;8.27;;;;;;;;;;5033412;28;20407;-68
2022/07/23 03:07:37;;;;;;;23.65;9.25;;;;;;;;;;5034156;28;20032;-68
2022/07/23 03:10:02;;;;;;;25.98;9.05;;;;;;;;;;5032206;28;20549;-68
2022/07/23 03:12:28;;;;;;;22.15;9.48;;;;;;;;;;5030672;28;20375;-69
2022/07/23 03:14:53;;;;;;;30.35;10.25;;;;;;;;;;5032547;28;20128;-68
2022/07/23 03:17:19;;;;;;;23.48;9.45;;;;;;;;;;5033064;28;20071;-68
2022/07/23 03:19:44;;;;;;;26.50;9.70;;;;;;;;;;5031664;28;20037;-68
2022/07/23 03:22:09;;;;;;;24.38;9.38;;;;;;;;;;5028358;28;20033;-68
2022/07/23 03:27:19;;;;;;;23.02;9.68;;;;;;;;;;5033321;28;20063;-68
2022/07/23 03:29:44;;;;;;;29.38;9.38;;;;;;;;;;5030969;28;20034;-68
2022/07/23 03:32:09;;;;;;;28.60;10.20;;;;;;;;;;5033121;28;20448;-68
2022/07/23 03:34:35;;;;;;;24.63;10.02;;;;;;;;;;5032115;28;20025;-68
2022/07/23 03:37:00;;;;;;;22.77;10.32;;;;;;;;;;5033469;28;20041;-68
2022/07/23 03:39:25;;;;;;;30.40;10.43;;;;;;;;;;5032280;28;20167;-68
2022/07/23 03:41:51;;;;;;;30.17;10.23;;;;;;;;;;5033649;28;20045;-68
2022/07/23 03:44:16;;;;;;;29.25;9.70;;;;;;;;;;5032395;28;20108;-68
2022/07/23 03:46:41;;;;;;;27.85;9.93;;;;;;;;;;5033138;28;20047;-68
2022/07/23 03:49:06;;;;;;;26.17;10.32;;;;;;;;;;5031824;28;20021;-68
2022/07/23 03:51:32;;;;;;;22.60;9.50;;;;;;;;;;5033175;28;20404;-68
2022/07/23 03:53:57;;;;;;;24.77;9.45;;;;;;;;;;5032401;28;20441;-68
2022/07/23 03:56:22;;;;;;;23.55;9.23;;;;;;;;;;5033082;28;20036;-68
2022/07/23 03:58:48;;;;;;;26.85;9.27;;;;;;;;;;5032185;28;20029;-69
2022/07/23 04:01:13;;;;;;;24.13;9.07;;;;;;;;;;5032793;28;20021;-68
2022/07/23 04:03:39;;;;;;;25.45;9.00;;;;;;;;;;5032365;28;20467;-68
2022/07/23 04:06:04;;;;;;;25.77;9.63;;;;;;;;;;5033055;28;20116;-68
2022/07/23 04:08:30;;;;;;;30.95;10.05;;;;;;;;;;5032581;28;20456;-68
2022/07/23 04:10:55;;;;;;;23.33;9.30;;;;;;;;;;5028583;28;20444;-68
2022/07/23 04:13:20;;;;;;;21.65;9.00;;;;;;;;;;5032363;28;20040;-68
2022/07/23 04:15:46;;;;;;;21.90;9.20;;;;;;;;;;5031604;28;20025;-68
2022/07/23 04:18:11;;;;;;;26.60;10.15;;;;;;;;;;5030529;28;20042;-68
2022/07/23 04:20:36;;;;;;;30.10;10.40;;;;;;;;;;5031926;28;20033;-68
2022/07/23 04:23:02;;;;;;;25.42;9.98;;;;;;;;;;5031578;28;20025;-69
2022/07/23 04:25:27;;;;;;;32.78;10.75;;;;;;;;;;5032518;28;20029;-68
2022/07/23 04:27:52;;;;;;;35.08;11.35;;;;;;;;;;5030564;28;20435;-68
2022/07/23 04:30:18;;;;;;;30.13;12.15;;;;;;;;;;5029786;28;20025;-68
2022/07/23 04:32:43;;;;;;;27.33;10.57;;;;;;;;;;5032327;28;20025;-68
2022/07/23 04:35:08;;;;;;;23.92;9.80;;;;;;;;;;5032278;28;20084;-68
2022/07/23 04:37:33;;;;;;;26.17;9.88;;;;;;;;;;5032465;28;20047;-69
2022/07/23 04:39:59;;;;;;;28.45;10.32;;;;;;;;;;5027077;28;20452;-69
2022/07/23 04:42:24;;;;;;;25.55;10.18;;;;;;;;;;5031575;28;20040;-68
2022/07/23 04:44:49;;;;;;;22.10;9.70;;;;;;;;;;5025256;28;20439;-68
2022/07/23 04:47:15;;;;;;;23.52;9.25;;;;;;;;;;5033229;28;20100;-69
2022/07/23 04:49:40;;;;;;;28.38;10.32;;;;;;;;;;5034220;28;20427;-68
2022/07/23 04:52:05;;;;;;;23.80;9.95;;;;;;;;;;5032956;28;20017;-68
2022/07/23 04:54:30;;;;;;;22.80;9.38;;;;;;;;;;5031495;28;20048;-68
2022/07/23 04:56:56;;;;;;;19.10;8.30;;;;;;;;;;5035234;28;20535;-68
2022/07/23 04:59:22;;;;;;;19.67;8.43;;;;;;;;;;5032379;28;20026;-68
2022/07/23 05:01:47;;;;;;;19.20;8.32;;;;;;;;;;5035453;28;20032;-68
2022/07/23 05:04:12;;;;;;;22.92;8.52;;;;;;;;;;5035580;28;20049;-68
2022/07/23 05:06:38;;;;;;;18.80;8.63;;;;;;;;;;5035958;28;20025;-68
2022/07/23 05:09:03;;;;;;;16.15;8.20;;;;;;;;;;5035478;28;20083;-69
2022/07/23 05:11:28;;;;;;;17.50;7.75;;;;;;;;;;5034501;28;20033;-68
2022/07/23 05:13:54;;;;;;;15.00;6.70;;;;;;;;;;5033356;28;20022;-68
2022/07/23 05:16:19;;;;;;;11.00;6.07;;;;;;;;;;5036282;28;20524;-68
2022/07/23 05:18:44;;;;;;;17.45;6.32;;;;;;;;;;5035427;28;20045;-68
2022/07/23 05:21:09;;;;;;;10.68;5.35;;;;;;;;;;5035220;28;20030;-69
2022/07/23 05:23:35;;;;;;;7.38;5.05;;;;;;;;;;5035521;28;20017;-69
2022/07/23 05:26:00;;;;;;;9.60;4.18;;;;;;;;;;5026607;28;20030;-69
2022/07/23 05:28:25;;;;;;;7.65;4.32;;;;;;;;;;5034121;28;20415;-68
2022/07/23 05:30:51;;;;;;;6.20;4.15;;;;;;;;;;5034111;28;20407;-69
2022/07/23 05:33:18;;;;;;;7.63;4.78;;;;;;;;;;5034936;28;20045;-69
2022/07/23 05:35:43;;;;;;;7.13;4.63;;;;;;;;;;5027778;28;20075;-68
2022/07/23 05:38:08;;;;;;;7.93;3.78;;;;;;;;;;5035239;28;20050;-69
2022/07/23 05:40:34;;;;;;;5.55;3.75;;;;;;;;;;5035140;28;20412;-69
2022/07/23 05:42:59;;;;;;;4.95;3.20;;;;;;;;;;5035360;28;20029;-68
2022/07/23 05:45:24;;;;;;;5.57;3.10;;;;;;;;;;5033847;28;20103;-69
2022/07/23 05:47:49;;;;;;;6.78;3.45;;;;;;;;;;5032416;28;20030;-69
2022/07/23 05:50:15;;;;;;;8.75;3.47;;;;;;;;;;5034867;28;20030;-70
2022/07/23 05:52:41;;;;;;;4.10;2.75;;;;;;;;;;5025325;28;20530;-70
2022/07/23 05:55:07;;;;;;;5.30;3.05;;;;;;;;;;5034885;28;20163;-70
2022/07/23 05:57:32;;;;;;;5.45;2.67;;;;;;;;;;5030762;28;20079;-70
2022/07/23 05:59:57;;;;;;;5.22;3.00;;;;;;;;;;5034684;28;20029;-70
2022/07/23 06:02:23;;;;;;;4.60;2.88;;;;;;;;;;5031426;28;20037;-70
2022/07/23 06:04:48;;;;;;;5.95;3.38;;;;;;;;;;5025658;28;20045;-69
2022/07/23 06:07:13;;;;;;;4.80;3.20;;;;;;;;;;5032481;28;20481;-69
2022/07/23 06:09:39;;;;;;;5.15;3.42;;;;;;;;;;5033449;28;20068;-69
2022/07/23 06:12:04;;;;;;;4.88;3.15;;;;;;;;;;5033408;28;20097;-69
2022/07/23 06:14:29;;;;;;;5.15;2.70;;;;;;;;;;5033040;28;20460;-70
2022/07/23 06:16:55;;;;;;;8.07;3.30;;;;;;;;;;5026270;28;20045;-69
2022/07/23 06:19:20;;;;;;;4.70;2.80;;;;;;;;;;5031487;28;20037;-69
2022/07/23 06:21:45;;;;;;;8.13;2.88;;;;;;;;;;5032402;28;20422;-70
2022/07/23 06:24:11;;;;;;;6.05;3.00;;;;;;;;;;5031055;28;20041;-69
2022/07/23 06:26:36;;;;;;;4.00;2.80;;;;;;;;;;5034645;28;20025;-69
2022/07/23 06:29:01;;;;;;;5.85;3.20;;;;;;;;;;5033838;28;20018;-69
2022/07/23 06:31:27;;;;;;;9.05;2.95;;;;;;;;;;5034182;28;20136;-70
2022/07/23 06:33:52;;;;;;;4.50;2.80;;;;;;;;;;5034303;28;20029;-70
2022/07/23 06:36:17;;;;;;;5.45;2.35;;;;;;;;;;5033979;28;20087;-70
2022/07/23 06:38:44;;;;;;;4.47;2.50;;;;;;;;;;5027443;28;20095;-71
2022/07/23 06:41:09;;;;;;;5.78;2.78;;;;;;;;;;5034043;28;20087;-69
2022/07/23 06:43:34;;;;;;;4.25;2.63;;;;;;;;;;5034118;28;20017;-70
2022/07/23 06:46:00;;;;;;;4.60;2.30;;;;;;;;;;5033797;28;20048;-69
2022/07/23 06:48:26;;;;;;;4.63;2.70;;;;;;;;;;5027419;28;20018;-69
2022/07/23 06:50:52;;;;;;;4.00;2.53;;;;;;;;;;5025594;28;20029;-69
2022/07/23 06:53:17;;;;;;;6.60;2.72;;;;;;;;;;5032188;28;20072;-70
2022/07/23 06:55:43;;;;;;;5.32;2.60;;;;;;;;;;5026522;28;20045;-70
2022/07/23 06:58:09;;;;;;;6.32;2.47;;;;;;;;;;5033447;28;20543;-71
2022/07/23 07:00:35;;;;;;;6.72;2.47;;;;;;;;;;5033452;28;20472;-70
2022/07/23 07:03:00;;;;;;;4.60;2.22;;;;;;;;;;5033856;28;20017;-71
2022/07/23 07:05:27;;;;;;;6.95;2.30;;;;;;;;;;5033739;28;20445;-70
2022/07/23 07:07:53;;;;;;;4.25;1.80;;;;;;;;;;5027784;28;20043;-70
2022/07/23 07:10:18;;;;;;;6.43;2.20;;;;;;;;;;5034156;28;20036;-70
2022/07/23 07:12:43;;;;;;;5.85;2.60;;;;;;;;;;5033805;28;20025;-70
2022/07/23 07:15:09;;;;;;;5.15;2.28;;;;;;;;;;5033407;28;20030;-70
2022/07/23 07:17:34;;;;;;;4.43;2.20;;;;;;;;;;5033867;28;20091;-70
2022/07/23 07:20:00;;;;;;;5.95;2.20;;;;;;;;;;5033477;28;20025;-71
2022/07/23 07:22:25;;;;;;;3.80;1.77;;;;;;;;;;5032868;28;20124;-70
2022/07/23 07:24:50;;;;;;;4.82;2.15;;;;;;;;;;5031044;28;20452;-70
2022/07/23 07:27:16;;;;;;;6.93;2.40;;;;;;;;;;5031413;28;20028;-70
2022/07/23 07:29:41;;;;;;;4.20;2.47;;;;;;;;;;5024856;28;20036;-70
2022/07/23 07:32:06;;;;;;;6.30;2.50;;;;;;;;;;5031349;28;20112;-69
2022/07/23 07:34:31;;;;;;;4.05;2.28;;;;;;;;;;5032086;28;20376;-71
2022/07/23 07:36:57;;;;;;;5.70;2.88;;;;;;;;;;5032783;28;20030;-70
2022/07/23 07:39:22;;;;;;;6.78;2.25;;;;;;;;;;5026215;28;20045;-69
2022/07/23 07:41:47;;;;;;;4.22;1.98;;;;;;;;;;5030818;28;20070;-67
2022/07/23 07:44:13;;;;;;;6.15;2.20;;;;;;;;;;5027395;28;20391;-68
2022/07/23 07:46:38;;;;;;;5.53;2.20;;;;;;;;;;5032860;28;20491;-68
2022/07/23 07:49:03;;;;;;;9.25;2.25;;;;;;;;;;5032694;28;20060;-68
2022/07/23 07:51:28;;;;;;;6.40;2.50;;;;;;;;;;5032476;28;20060;-68
2022/07/23 07:53:54;;;;;;;5.97;2.17;;;;;;;;;;5028308;28;20022;-68
2022/07/23 07:56:19;;;;;;;4.47;2.28;;;;;;;;;;5020223;28;20026;-69
2022/07/23 07:58:44;;;;;;;6.90;2.40;;;;;;;;;;5019444;28;20042;-68
